Terminal Aerodrome Forecast
Issued by NWS

Home | Current Version | Previous Version | Text Only | Print | Product List | Glossary On
Versions: 1 2 3 4 5 6 7 8 9 10 11 12 13 14 15 16 17 18 19 20 21 22 23 24 25 26
000
FTUS46 KLOX 181601 AAC
TAFOXR
TAF AMD
KOXR 181601Z 1816/1912 07006KT P6SM BKN020 BKN120
     FM181900 13007KT P6SM SCT020 BKN120
     FM190300 12010KT P6SM -SHRA OVC015
     FM190500 09015G25KT 5SM -RA BKN010 OVC015
     FM190900 11015G25KT 2SM RA BR OVC007=

USA.gov is the U.S. government's official web portal to all federal, state and local government web resources and services.